Time;durP1;ratioP1;P1;durP2;ratioP2;P2;SDS_P1;SDS_P2;PMS_P1;PMS_P2;Temp;Humidity;BMP_temperature;BMP_pressure;BME280_temperature;BME280_humidity;BME280_pressure;Samples;Min_cycle;Max_cycle;Signal;HPM_P1;HPM_P2
2023/11/19 00:00:11;;;;;;;4.37;2.77;;;;;;;11.91;66.44;97389.91;5063670;28;20226;-70
2023/11/19 00:02:37;;;;;;;2.90;2.70;;;;;;;11.96;66.81;97387.66;5067788;28;20472;-70
2023/11/19 00:05:02;;;;;;;2.90;2.23;;;;;;;11.98;66.79;97379.63;5064109;28;20974;-70
2023/11/19 00:07:28;;;;;;;2.40;2.20;;;;;;;12.03;66.85;97390.50;5056396;28;20462;-69
2023/11/19 00:09:55;;;;;;;2.40;2.20;;;;;;;12.03;66.91;97377.38;5055426;28;20242;-72
2023/11/19 00:12:20;;;;;;;3.83;2.43;;;;;;;12.04;67.37;97363.25;5042089;28;20194;-71
2023/11/19 00:14:45;;;;;;;2.47;1.83;;;;;;;12.04;68.44;97351.91;5055867;28;20500;-72
2023/11/19 00:17:11;;;;;;;1.93;1.73;;;;;;;12.10;68.15;97357.38;5062946;28;20225;-70
2023/11/19 00:19:37;;;;;;;4.50;1.87;;;;;;;12.14;68.27;97352.63;5050650;28;20261;-72
2023/11/19 00:22:02;;;;;;;1.70;1.60;;;;;;;12.13;68.60;97343.09;5063474;28;20210;-71
2023/11/19 00:24:28;;;;;;;2.00;1.70;;;;;;;12.13;68.90;97333.41;5062976;28;20194;-71
2023/11/19 00:26:54;;;;;;;5.53;1.60;;;;;;;12.11;69.40;97340.63;5054992;28;20718;-71
2023/11/19 00:29:20;;;;;;;1.77;1.67;;;;;;;12.19;69.18;97344.28;5064683;28;20454;-71
2023/11/19 00:31:45;;;;;;;4.27;2.00;;;;;;;12.25;68.72;97349.72;5060202;28;20201;-71
2023/11/19 00:34:11;;;;;;;2.33;1.60;;;;;;;12.26;69.36;97354.00;5057825;28;20607;-70
2023/11/19 00:36:36;;;;;;;3.70;1.90;;;;;;;12.22;69.71;97336.88;5062496;28;20190;-70
2023/11/19 00:39:02;;;;;;;2.03;1.70;;;;;;;12.27;69.51;97332.00;5063925;28;20621;-70
2023/11/19 00:41:27;;;;;;;2.17;1.53;;;;;;;12.33;69.43;97321.81;5062836;28;20272;-70
2023/11/19 00:43:52;;;;;;;1.43;1.33;;;;;;;12.31;70.08;97329.88;5062206;28;20202;-70
2023/11/19 00:46:18;;;;;;;1.80;1.70;;;;;;;12.34;69.89;97319.03;5052900;28;20202;-72
2023/11/19 00:48:43;;;;;;;1.50;1.40;;;;;;;12.38;70.12;97324.78;5058504;28;20881;-71
2023/11/19 00:51:11;;;;;;;3.17;1.40;;;;;;;12.34;70.28;97318.19;5064102;28;20222;-71
2023/11/19 00:53:37;;;;;;;3.13;1.83;;;;;;;12.41;69.94;97321.84;5062810;28;20197;-70
2023/11/19 00:56:02;;;;;;;1.70;1.50;;;;;;;12.47;70.37;97305.41;5064028;28;20930;-71
2023/11/19 00:58:28;;;;;;;1.57;1.30;;;;;;;12.50;70.13;97306.88;5065748;28;20649;-71
2023/11/19 01:00:53;;;;;;;1.40;1.30;;;;;;;12.54;69.93;97308.22;5051885;28;20209;-71
2023/11/19 01:03:19;;;;;;;1.43;1.30;;;;;;;12.57;70.11;97302.66;5058820;28;20286;-70
2023/11/19 01:05:46;;;;;;;1.07;0.97;;;;;;;12.62;70.13;97300.34;5058514;28;20943;-71
2023/11/19 01:08:12;;;;;;;1.30;1.00;;;;;;;12.62;70.40;97295.06;5054816;28;20187;-71
2023/11/19 01:10:37;;;;;;;5.50;1.30;;;;;;;12.64;70.18;97297.56;5061681;28;20425;-70
2023/11/19 01:13:05;;;;;;;1.10;1.00;;;;;;;12.69;69.94;97298.72;5062959;28;20213;-71
2023/11/19 01:15:31;;;;;;;2.00;1.17;;;;;;;12.71;70.13;97294.13;5062790;28;20222;-71
2023/11/19 01:17:57;;;;;;;1.23;0.90;;;;;;;12.71;70.41;97296.75;5056485;28;20442;-71
2023/11/19 01:20:22;;;;;;;1.23;0.87;;;;;;;12.74;70.31;97300.84;5058981;28;21039;-71
2023/11/19 01:22:48;;;;;;;1.43;0.83;;;;;;;12.80;70.43;97291.47;5058121;28;20206;-71
2023/11/19 01:25:15;;;;;;;1.37;0.90;;;;;;;12.83;70.17;97288.53;5055741;28;20210;-71
2023/11/19 01:27:40;;;;;;;1.10;0.90;;;;;;;12.83;70.42;97280.63;5051629;28;20447;-72
2023/11/19 01:30:09;;;;;;;0.90;0.80;;;;;;;12.84;70.50;97282.28;5057224;28;20233;-70
2023/11/19 01:32:34;;;;;;;1.00;0.83;;;;;;;12.90;70.45;97268.47;5046569;28;20277;-72
2023/11/19 01:35:00;;;;;;;2.07;0.87;;;;;;;12.93;70.25;97269.94;5056440;28;20544;-71
2023/11/19 01:37:26;;;;;;;1.07;0.80;;;;;;;12.90;70.79;97276.34;5052229;28;20194;-73
2023/11/19 01:39:51;;;;;;;1.30;0.80;;;;;;;12.95;70.80;97263.53;5053957;28;20564;-72
2023/11/19 01:42:17;;;;;;;1.00;0.80;;;;;;;12.98;70.72;97272.88;5050016;28;20302;-71
2023/11/19 01:44:42;;;;;;;0.90;0.70;;;;;;;12.99;70.90;97272.72;5061824;28;20221;-71
2023/11/19 01:47:08;;;;;;;1.13;0.73;;;;;;;13.01;70.86;97278.63;5055296;28;20189;-72
2023/11/19 01:49:34;;;;;;;0.97;0.67;;;;;;;13.05;70.55;97279.13;5053280;28;20301;-69
2023/11/19 01:52:00;;;;;;;1.53;0.63;;;;;;;13.03;70.97;97271.41;5063543;28;20433;-72
2023/11/19 01:54:25;;;;;;;0.83;0.70;;;;;;;13.01;71.08;97273.38;5061310;28;20638;-73
2023/11/19 01:56:52;;;;;;;1.47;0.70;;;;;;;13.00;71.37;97277.00;5062554;28;20194;-71
2023/11/19 01:59:20;;;;;;;4.63;0.90;;;;;;;13.03;71.30;97270.59;5057320;28;20225;-72
2023/11/19 02:01:45;;;;;;;0.80;0.60;;;;;;;13.10;71.36;97266.31;5063399;28;21017;-71
2023/11/19 02:04:11;;;;;;;1.50;0.93;;;;;;;13.12;71.48;97266.97;5057188;28;20435;-71
2023/11/19 02:06:40;;;;;;;0.87;0.60;;;;;;;13.13;71.31;97265.13;5051355;28;20187;-71
2023/11/19 02:09:07;;;;;;;1.10;0.60;;;;;;;13.16;71.28;97254.28;5055978;28;20225;-71
2023/11/19 02:11:36;;;;;;;1.23;0.57;;;;;;;13.16;71.39;97256.91;5067632;28;20492;-70
2023/11/19 02:14:03;;;;;;;1.10;0.70;;;;;;;13.19;71.33;97264.47;5064755;28;21145;-70
2023/11/19 02:16:29;;;;;;;1.57;0.60;;;;;;;13.22;71.32;97264.16;5055733;28;20433;-71
2023/11/19 02:18:55;;;;;;;1.33;0.63;;;;;;;13.26;71.15;97260.19;5060562;28;20791;-72
2023/11/19 02:21:20;;;;;;;0.90;0.60;;;;;;;13.28;71.39;97260.03;5063269;28;20460;-72
2023/11/19 02:23:46;;;;;;;0.93;0.70;;;;;;;13.26;71.20;97249.66;5058805;28;20221;-71
2023/11/19 02:26:18;;;;;;;1.00;0.60;;;;;;;13.26;71.53;97249.66;5053639;28;20247;-72
2023/11/19 02:28:44;;;;;;;0.90;0.60;;;;;;;13.26;71.47;97233.88;5055813;28;20214;-72
2023/11/19 02:31:10;;;;;;;1.00;0.60;;;;;;;13.30;71.51;97239.59;5057348;28;20440;-72
2023/11/19 02:33:39;;;;;;;1.47;0.80;;;;;;;13.32;71.65;97235.84;5064150;28;20294;-70
2023/11/19 02:36:06;;;;;;;0.90;0.70;;;;;;;13.34;71.58;97231.22;5065890;28;20954;-72
2023/11/19 02:38:32;;;;;;;0.90;0.60;;;;;;;13.36;71.56;97242.38;5060162;28;20448;-71
2023/11/19 02:40:58;;;;;;;3.37;0.60;;;;;;;13.36;71.44;97237.13;5126235;22;20500;-71
2023/11/19 02:43:23;;;;;;;1.83;0.60;;;;;;;13.40;71.59;97239.44;5043891;28;20191;-72
2023/11/19 02:45:51;;;;;;;0.90;0.60;;;;;;;13.43;71.22;97242.56;5055246;28;20198;-71
2023/11/19 02:48:16;;;;;;;1.00;0.70;;;;;;;13.45;71.41;97248.47;5058502;28;20437;-70
2023/11/19 02:50:42;;;;;;;1.10;0.50;;;;;;;13.50;71.31;97250.59;5032761;28;20198;-70
2023/11/19 02:53:08;;;;;;;1.30;0.70;;;;;;;13.52;71.33;97251.25;5048115;28;20282;-71
2023/11/19 02:55:37;;;;;;;0.83;0.70;;;;;;;13.54;71.29;97251.91;5042080;28;20180;-70
2023/11/19 02:58:09;;;;;;;1.17;0.63;;;;;;;13.54;71.25;97243.22;5047140;28;20694;-70
2023/11/19 03:00:47;;;;;;;0.80;0.60;;;;;;;13.54;71.42;97245.84;5038885;28;20469;-70
2023/11/19 03:03:20;;;;;;;1.20;0.60;;;;;;;13.54;71.46;97244.00;5040082;28;20524;-71
2023/11/19 03:05:49;;;;;;;1.27;0.77;;;;;;;13.53;71.57;97245.00;5032918;28;20985;-70
2023/11/19 03:08:18;;;;;;;0.80;0.50;;;;;;;13.55;71.52;97248.28;5043174;28;20426;-70
2023/11/19 03:10:43;;;;;;;0.80;0.53;;;;;;;13.58;71.45;97247.13;5039197;28;20457;-70
2023/11/19 03:13:16;;;;;;;0.90;0.60;;;;;;;13.57;71.63;97245.47;5041265;28;20911;-69
2023/11/19 03:15:42;;;;;;;0.80;0.50;;;;;;;13.61;71.49;97260.75;5049351;28;20202;-71
2023/11/19 03:18:08;;;;;;;1.50;0.57;;;;;;;13.58;71.84;97263.75;5014787;28;20842;-71
2023/11/19 03:20:33;;;;;;;0.80;0.50;;;;;;;13.62;71.61;97257.13;5039924;28;20205;-69
2023/11/19 03:23:00;;;;;;;0.77;0.50;;;;;;;13.60;71.78;97263.56;5051620;28;20657;-70
2023/11/19 03:25:26;;;;;;;1.00;0.60;;;;;;;13.62;71.68;97259.78;5050817;28;20188;-71
2023/11/19 03:27:53;;;;;;;5.10;0.60;;;;;;;13.62;71.76;97261.59;5039978;28;20448;-71
2023/11/19 03:30:20;;;;;;;0.90;0.60;;;;;;;13.67;71.76;97261.91;5042012;28;20557;-69
2023/11/19 03:32:46;;;;;;;1.40;0.60;;;;;;;13.68;71.74;97260.91;5028862;28;20434;-70
2023/11/19 03:35:12;;;;;;;0.90;0.60;;;;;;;13.70;71.78;97250.22;5046513;28;20482;-71
2023/11/19 03:37:37;;;;;;;1.10;0.73;;;;;;;13.71;71.66;97267.66;5049839;28;20195;-70
2023/11/19 03:40:04;;;;;;;1.57;0.63;;;;;;;13.63;72.35;97255.34;5048021;28;20349;-70
2023/11/19 03:42:30;;;;;;;1.77;0.60;;;;;;;13.70;72.20;97247.59;5043328;28;20238;-70
2023/11/19 03:44:56;;;;;;;2.27;0.60;;;;;;;13.75;71.97;97239.97;5048366;28;20469;-70
2023/11/19 03:47:21;;;;;;;1.33;0.60;;;;;;;13.78;71.78;97240.47;5044988;28;20454;-70
2023/11/19 03:49:51;;;;;;;1.10;0.50;;;;;;;13.79;71.49;97239.47;5030885;28;20207;-73
2023/11/19 03:52:17;;;;;;;1.17;0.50;;;;;;;13.81;71.70;97247.19;5049235;28;20179;-72
2023/11/19 03:54:42;;;;;;;1.17;0.60;;;;;;;13.82;71.90;97247.00;5048086;28;20488;-70
2023/11/19 03:57:10;;;;;;;0.80;0.50;;;;;;;13.83;71.54;97250.50;5054510;28;20433;-71
2023/11/19 03:59:35;;;;;;;0.70;0.40;;;;;;;13.83;71.84;97235.50;5040480;28;20207;-69
2023/11/19 04:02:02;;;;;;;0.90;0.50;;;;;;;13.82;71.83;97238.31;5038084;28;20459;-71
2023/11/19 04:04:29;;;;;;;0.80;0.50;;;;;;;13.83;71.78;97232.03;5035124;28;20184;-71
2023/11/19 04:06:54;;;;;;;0.80;0.50;;;;;;;13.84;71.53;97233.69;5031766;28;20486;-71
2023/11/19 04:09:20;;;;;;;0.80;0.50;;;;;;;13.85;71.68;97232.69;5030661;28;20449;-71
2023/11/19 04:11:46;;;;;;;0.73;0.50;;;;;;;13.85;71.88;97234.50;5043928;28;20330;-71
2023/11/19 04:14:13;;;;;;;0.80;0.50;;;;;;;13.89;71.69;97241.88;5042654;28;20195;-71
2023/11/19 04:16:38;;;;;;;0.80;0.50;;;;;;;13.83;71.83;97234.69;5042150;28;20430;-70
2023/11/19 04:19:04;;;;;;;1.40;0.53;;;;;;;13.86;71.83;97239.59;5045531;28;20452;-71
2023/11/19 04:21:36;;;;;;;0.80;0.50;;;;;;;13.88;71.82;97242.88;5044861;28;20202;-70
2023/11/19 04:24:01;;;;;;;1.00;0.50;;;;;;;13.87;71.80;97241.22;5037984;28;20229;-70
2023/11/19 04:26:26;;;;;;;0.70;0.50;;;;;;;13.85;72.00;97243.25;5044920;28;20851;-70
2023/11/19 04:28:52;;;;;;;0.70;0.50;;;;;;;13.81;72.14;97245.38;5043158;28;20297;-70
2023/11/19 04:31:18;;;;;;;0.80;0.47;;;;;;;13.89;71.90;97235.81;5040410;28;20270;-71
2023/11/19 04:33:43;;;;;;;0.80;0.50;;;;;;;13.84;71.99;97236.31;5043645;28;20210;-70
2023/11/19 04:36:14;;;;;;;0.80;0.50;;;;;;;13.77;72.38;97244.09;5044496;28;20190;-71
2023/11/19 04:38:39;;;;;;;0.80;0.47;;;;;;;13.87;71.99;97241.22;5028880;28;20227;-70
2023/11/19 04:41:06;;;;;;;1.10;0.50;;;;;;;13.87;72.20;97240.41;5043688;28;20464;-70
2023/11/19 04:43:34;;;;;;;0.80;0.50;;;;;;;13.94;71.89;97252.75;5048291;28;20191;-71
2023/11/19 04:46:00;;;;;;;0.70;0.43;;;;;;;13.95;72.05;97254.38;5035877;28;20500;-70
2023/11/19 04:48:25;;;;;;;0.70;0.40;;;;;;;13.91;72.23;97252.25;5043887;28;20433;-71
2023/11/19 04:50:52;;;;;;;0.80;0.40;;;;;;;13.86;72.69;97262.47;5048506;28;20304;-70
2023/11/19 04:53:17;;;;;;;0.80;0.50;;;;;;;13.92;72.62;97254.72;5043954;28;20229;-70
2023/11/19 04:55:43;;;;;;;0.80;0.50;;;;;;;13.96;72.39;97253.38;5045546;28;20520;-70
2023/11/19 04:58:09;;;;;;;0.80;0.50;;;;;;;13.95;72.60;97259.66;5038977;28;20260;-71
2023/11/19 05:00:34;;;;;;;3.67;0.60;;;;;;;13.93;72.80;97256.38;5044419;28;20195;-70
2023/11/19 05:03:00;;;;;;;1.77;0.50;;;;;;;13.93;73.04;97256.38;5035821;28;20265;-71
2023/11/19 05:05:25;;;;;;;0.70;0.50;;;;;;;13.95;72.92;97257.00;5043100;28;20187;-70
2023/11/19 05:07:51;;;;;;;0.80;0.50;;;;;;;13.94;72.80;97250.09;5042247;28;20251;-71
2023/11/19 05:10:16;;;;;;;0.80;0.50;;;;;;;13.93;73.16;97250.25;5035812;28;20239;-70
2023/11/19 05:12:41;;;;;;;0.77;0.50;;;;;;;14.01;73.02;97252.88;5048156;28;20198;-71
2023/11/19 05:15:07;;;;;;;2.33;0.50;;;;;;;14.01;72.96;97252.88;5037309;28;20680;-71
2023/11/19 05:17:33;;;;;;;0.80;0.50;;;;;;;14.03;72.86;97247.41;5044036;28;20855;-71
2023/11/19 05:19:58;;;;;;;0.80;0.60;;;;;;;14.03;73.13;97257.94;5047781;28;20218;-71
2023/11/19 05:22:24;;;;;;;0.80;0.50;;;;;;;14.02;73.10;97243.97;5038679;28;20460;-70
2023/11/19 05:24:49;;;;;;;0.80;0.50;;;;;;;13.98;72.96;97240.03;5047794;28;20195;-71
2023/11/19 05:27:15;;;;;;;0.80;0.50;;;;;;;14.03;72.76;97250.88;5046450;28;20197;-71
2023/11/19 05:29:41;;;;;;;1.10;0.70;;;;;;;14.08;72.75;97253.00;5047400;28;20679;-70
2023/11/19 05:32:07;;;;;;;1.03;0.50;;;;;;;14.10;72.52;97258.91;5047445;28;20183;-71
2023/11/19 05:34:32;;;;;;;1.40;0.63;;;;;;;14.04;73.00;97264.88;5043907;28;20432;-70
2023/11/19 05:36:57;;;;;;;0.80;0.60;;;;;;;14.02;73.16;97272.97;5026166;28;21294;-71
2023/11/19 05:39:24;;;;;;;1.23;0.50;;;;;;;14.02;73.11;97261.56;5025466;28;20599;-71
2023/11/19 05:41:49;;;;;;;0.80;0.50;;;;;;;14.11;72.82;97263.19;5029609;28;20688;-71
2023/11/19 05:44:15;;;;;;;1.40;0.60;;;;;;;14.18;72.55;97260.66;5041956;28;20509;-70
2023/11/19 05:46:42;;;;;;;0.90;0.60;;;;;;;14.23;72.46;97259.16;5046842;28;20195;-69
2023/11/19 05:49:08;;;;;;;2.70;0.60;;;;;;;14.22;72.32;97260.16;5047083;28;20257;-71
2023/11/19 05:51:40;;;;;;;1.63;0.80;;;;;;;14.25;72.51;97264.25;5044079;28;20430;-68
2023/11/19 05:54:09;;;;;;;0.70;0.40;;;;;;;14.26;72.36;97265.91;5046756;28;20448;-68
2023/11/19 05:57:02;;;;;;;1.00;0.60;;;;;;;14.29;72.33;97271.63;5043316;28;20456;-68
2023/11/19 05:59:27;;;;;;;1.83;0.50;;;;;;;14.31;72.40;97263.53;5021848;28;20476;-69
2023/11/19 06:01:53;;;;;;;0.80;0.50;;;;;;;14.27;72.54;97272.81;5035470;28;20489;-69
2023/11/19 06:04:18;;;;;;;0.90;0.50;;;;;;;14.26;72.40;97266.72;5042715;28;20191;-71
2023/11/19 06:06:44;;;;;;;0.83;0.53;;;;;;;14.28;72.46;97266.56;5042061;28;20234;-70
2023/11/19 06:09:09;;;;;;;0.90;0.60;;;;;;;14.28;72.79;97258.66;5046631;28;20289;-71
2023/11/19 06:11:35;;;;;;;2.20;0.70;;;;;;;14.29;72.50;97255.81;5036171;28;20221;-70
2023/11/19 06:14:01;;;;;;;0.80;0.60;;;;;;;14.31;72.42;97263.53;5034196;28;20269;-71
2023/11/19 06:16:27;;;;;;;0.80;0.60;;;;;;;14.24;72.57;97262.63;5052359;28;20552;-71
2023/11/19 06:18:53;;;;;;;0.87;0.70;;;;;;;14.28;72.68;97254.19;5048255;28;20473;-70
2023/11/19 06:21:18;;;;;;;0.80;0.60;;;;;;;14.28;72.57;97263.91;5052224;28;20641;-71
2023/11/19 06:23:44;;;;;;;0.80;0.50;;;;;;;14.27;72.71;97265.72;5048055;28;20540;-70
2023/11/19 06:26:09;;;;;;;0.83;0.60;;;;;;;14.28;72.74;97270.00;5035042;28;20202;-71
2023/11/19 06:28:36;;;;;;;0.80;0.60;;;;;;;14.25;72.83;97265.06;5043872;28;20210;-71
2023/11/19 06:31:01;;;;;;;0.80;0.60;;;;;;;14.32;72.76;97264.38;5044370;28;20656;-72
2023/11/19 06:33:27;;;;;;;1.30;0.60;;;;;;;14.32;72.66;97261.75;5028883;28;20492;-71
2023/11/19 06:35:52;;;;;;;1.10;0.80;;;;;;;14.35;72.75;97271.94;5048799;28;20627;-71
2023/11/19 06:38:18;;;;;;;0.90;0.70;;;;;;;14.35;72.64;97274.59;5044417;28;20183;-72
2023/11/19 06:40:44;;;;;;;0.80;0.60;;;;;;;14.30;72.84;97275.13;5050098;28;20287;-71
2023/11/19 06:43:09;;;;;;;1.73;0.60;;;;;;;14.32;72.88;97281.00;5052816;28;20224;-72
2023/11/19 06:45:36;;;;;;;0.80;0.60;;;;;;;14.35;72.89;97277.22;5052756;28;20306;-71
2023/11/19 06:48:03;;;;;;;1.87;0.90;;;;;;;14.33;72.98;97273.94;5053732;28;20207;-72
2023/11/19 06:50:28;;;;;;;2.57;0.70;;;;;;;14.37;72.90;97277.84;5053079;28;20814;-72
2023/11/19 06:52:54;;;;;;;0.80;0.60;;;;;;;14.43;72.70;97287.72;5054142;28;20444;-72
2023/11/19 06:55:19;;;;;;;2.80;0.70;;;;;;;14.42;72.83;97280.78;5034891;28;20244;-71
2023/11/19 06:57:44;;;;;;;1.10;0.67;;;;;;;14.46;72.63;97291.81;5053157;28;20199;-72
2023/11/19 07:00:11;;;;;;;0.87;0.60;;;;;;;14.42;72.74;97296.59;5053098;28;20294;-72
2023/11/19 07:02:36;;;;;;;0.80;0.67;;;;;;;14.44;72.25;97295.44;5034459;28;20231;-71
2023/11/19 07:05:04;;;;;;;0.90;0.70;;;;;;;14.45;72.49;97296.28;5051051;28;21005;-71
2023/11/19 07:07:30;;;;;;;1.77;0.70;;;;;;;14.42;72.63;97296.59;5048326;28;20198;-72
2023/11/19 07:09:56;;;;;;;0.90;0.70;;;;;;;14.47;72.44;97304.00;5050287;28;20507;-71
2023/11/19 07:12:21;;;;;;;1.00;0.70;;;;;;;14.46;72.53;97292.63;5044741;28;20984;-71
2023/11/19 07:14:47;;;;;;;1.10;0.70;;;;;;;14.50;72.47;97290.47;5044781;28;20194;-71
2023/11/19 07:17:12;;;;;;;0.83;0.67;;;;;;;14.52;72.41;97294.56;5043065;28;20278;-72
2023/11/19 07:19:38;;;;;;;1.00;0.80;;;;;;;14.56;72.35;97301.13;5044382;28;20293;-71
2023/11/19 07:22:04;;;;;;;1.50;0.80;;;;;;;14.55;72.35;97301.31;5032145;28;20202;-72
2023/11/19 07:24:29;;;;;;;1.20;0.90;;;;;;;14.56;72.32;97301.13;5046824;28;20223;-72
2023/11/19 07:26:54;;;;;;;0.83;0.67;;;;;;;14.53;72.37;97298.84;5044694;28;20189;-71
2023/11/19 07:29:21;;;;;;;1.10;0.90;;;;;;;14.53;72.26;97288.28;5046616;28;20215;-72
2023/11/19 07:31:48;;;;;;;1.60;0.80;;;;;;;14.54;72.23;97300.47;5045244;28;20214;-71
2023/11/19 07:34:14;;;;;;;8.33;0.70;;;;;;;14.49;72.45;97302.00;5045442;28;20956;-72
2023/11/19 07:36:39;;;;;;;1.60;0.67;;;;;;;14.47;72.75;97312.75;5043344;28;20515;-71
2023/11/19 07:39:05;;;;;;;1.30;0.70;;;;;;;14.54;72.51;97311.03;5038006;28;20211;-72
2023/11/19 07:41:33;;;;;;;1.10;0.63;;;;;;;14.56;72.31;97324.88;5045770;28;20210;-72
2023/11/19 07:43:58;;;;;;;2.07;1.10;;;;;;;14.57;72.53;97315.13;5041922;28;20649;-71
2023/11/19 07:46:25;;;;;;;1.00;0.90;;;;;;;14.60;72.34;97314.78;5024389;28;20437;-72
2023/11/19 07:48:50;;;;;;;1.23;1.13;;;;;;;14.58;72.38;97311.50;5023081;28;20215;-70
2023/11/19 07:51:16;;;;;;;2.00;1.00;;;;;;;14.58;72.42;97316.78;5051992;28;20445;-71
2023/11/19 07:53:41;;;;;;;2.30;0.90;;;;;;;14.56;72.60;97316.13;5011780;28;20198;-69
2023/11/19 07:56:08;;;;;;;1.20;0.70;;;;;;;14.56;72.55;97322.22;5040552;28;20206;-69
2023/11/19 07:58:33;;;;;;;0.97;0.70;;;;;;;14.60;72.42;97333.25;5044579;28;20269;-69
2023/11/19 08:00:59;;;;;;;1.20;0.70;;;;;;;14.59;72.76;97331.59;5046534;28;20516;-72
2023/11/19 08:03:24;;;;;;;1.10;0.90;;;;;;;14.65;72.39;97327.44;5046732;28;20190;-71
2023/11/19 08:05:50;;;;;;;1.00;0.90;;;;;;;14.68;72.30;97320.03;5041396;28;20218;-73
2023/11/19 08:08:16;;;;;;;6.67;0.80;;;;;;;14.74;72.12;97326.44;5026213;28;20282;-72
2023/11/19 08:10:43;;;;;;;1.00;0.70;;;;;;;14.78;72.14;97322.44;5036384;28;20195;-72
2023/11/19 08:13:08;;;;;;;1.20;0.60;;;;;;;14.80;72.15;97319.63;5036002;28;20430;-72
2023/11/19 08:15:34;;;;;;;0.90;0.70;;;;;;;14.81;72.07;97329.16;5038694;28;20438;-72
2023/11/19 08:17:59;;;;;;;0.90;0.60;;;;;;;14.80;72.15;97315.19;5014547;28;20619;-72
2023/11/19 08:20:25;;;;;;;1.20;0.67;;;;;;;14.85;72.12;97318.13;5044655;28;20241;-72
2023/11/19 08:22:50;;;;;;;2.30;0.83;;;;;;;14.79;72.20;97302.97;5047519;28;20229;-72
2023/11/19 08:25:16;;;;;;;1.53;0.73;;;;;;;14.86;72.27;97314.47;5042195;28;20270;-71
2023/11/19 08:27:42;;;;;;;1.47;0.80;;;;;;;14.98;72.06;97319.34;5039054;28;20248;-71
2023/11/19 08:30:08;;;;;;;1.10;0.80;;;;;;;15.00;71.93;97315.50;5029819;28;20219;-72
2023/11/19 08:32:34;;;;;;;1.00;0.80;;;;;;;15.08;71.70;97324.34;5043510;28;20516;-70
2023/11/19 08:34:59;;;;;;;1.17;0.70;;;;;;;15.34;71.94;97321.31;5045319;28;20202;-71
2023/11/19 08:37:25;;;;;;;1.10;0.90;;;;;;;16.02;72.04;97310.69;5041865;28;20256;-72
2023/11/19 08:39:51;;;;;;;1.10;0.90;;;;;;;16.56;70.99;97321.88;5042559;28;20930;-71
2023/11/19 08:42:17;;;;;;;1.00;0.60;;;;;;;16.59;68.97;97332.09;5045039;28;20217;-71
2023/11/19 08:44:43;;;;;;;11.50;0.70;;;;;;;16.61;67.65;97322.16;5041856;28;20205;-70
2023/11/19 08:47:12;;;;;;;2.40;0.97;;;;;;;16.45;66.28;97323.19;5041258;28;20186;-74
2023/11/19 08:49:39;;;;;;;1.13;0.80;;;;;;;16.38;66.79;97323.09;5042723;28;21080;-72
2023/11/19 08:52:04;;;;;;;1.57;0.80;;;;;;;16.31;66.68;97329.34;5047106;28;21044;-72
2023/11/19 08:54:30;;;;;;;2.50;0.80;;;;;;;16.27;66.78;97327.06;5044860;28;20468;-73
2023/11/19 08:56:55;;;;;;;2.03;0.80;;;;;;;16.30;67.06;97331.16;5022929;28;20430;-72
2023/11/19 08:59:21;;;;;;;1.03;0.70;;;;;;;16.35;66.87;97328.78;5030049;28;20797;-72
2023/11/19 09:01:47;;;;;;;1.20;0.90;;;;;;;16.44;66.70;97324.22;5027087;28;20215;-71
2023/11/19 09:04:12;;;;;;;1.53;0.77;;;;;;;16.63;66.91;97330.72;5028883;28;20553;-71
2023/11/19 09:06:38;;;;;;;1.80;0.90;;;;;;;16.95;67.06;97323.31;5045667;28;20313;-71
2023/11/19 09:09:05;;;;;;;3.13;0.90;;;;;;;17.28;65.46;97330.69;5046588;28;20248;-72
2023/11/19 09:11:30;;;;;;;1.57;0.70;;;;;;;17.33;64.88;97322.16;5031433;28;20271;-73
2023/11/19 09:13:56;;;;;;;1.60;0.90;;;;;;;17.37;64.26;97327.91;5028416;28;20457;-73
2023/11/19 09:16:21;;;;;;;2.37;0.93;;;;;;;17.30;63.99;97330.53;5036338;28;20270;-72
2023/11/19 09:18:47;;;;;;;1.33;1.03;;;;;;;17.16;63.46;97332.22;5050315;28;20311;-71
2023/11/19 09:21:12;;;;;;;2.33;1.10;;;;;;;17.10;63.98;97333.00;5046389;28;20207;-71
2023/11/19 09:23:39;;;;;;;1.47;0.90;;;;;;;16.98;63.93;97338.81;5039717;28;20198;-71
2023/11/19 09:26:13;;;;;;;2.63;0.70;;;;;;;16.93;64.50;97335.88;5038213;28;20275;-71
2023/11/19 09:28:39;;;;;;;1.07;0.70;;;;;;;16.83;64.42;97335.38;5034889;28;20445;-71
2023/11/19 09:31:16;;;;;;;2.80;1.30;;;;;;;17.07;64.54;97336.03;5040962;28;20425;-71
2023/11/19 09:33:41;;;;;;;1.67;0.70;;;;;;;17.09;64.22;97334.00;5037389;28;20198;-71
2023/11/19 09:36:07;;;;;;;1.10;0.70;;;;;;;17.14;64.18;97339.53;5046015;28;20476;-72
2023/11/19 09:38:32;;;;;;;1.10;0.90;;;;;;;17.26;64.23;97335.38;5044939;28;20669;-72
2023/11/19 09:41:00;;;;;;;8.90;0.90;;;;;;;17.41;63.82;97347.69;5041004;28;20191;-72
2023/11/19 09:43:28;;;;;;;2.00;0.80;;;;;;;17.72;63.81;97331.41;5042730;28;20261;-72
2023/11/19 09:45:54;;;;;;;2.60;0.90;;;;;;;18.14;61.60;97339.41;5046572;28;20943;-72
2023/11/19 09:48:20;;;;;;;1.00;0.73;;;;;;;18.40;60.40;97329.88;5037770;28;20438;-73
2023/11/19 09:50:47;;;;;;;0.90;0.60;;;;;;;18.91;60.41;97327.75;5036471;28;20470;-72
2023/11/19 09:53:12;;;;;;;2.70;0.80;;;;;;;19.21;58.72;97330.06;5042682;28;20202;-72
2023/11/19 09:55:38;;;;;;;1.27;1.00;;;;;;;19.54;58.33;97329.19;5040952;28;20437;-71
2023/11/19 09:58:03;;;;;;;4.20;0.70;;;;;;;20.17;57.01;97327.84;5034852;28;20195;-71
2023/11/19 10:00:30;;;;;;;1.00;0.70;;;;;;;20.74;53.94;97316.50;5027331;28;20698;-72
2023/11/19 10:02:57;;;;;;;1.07;0.70;;;;;;;21.15;52.80;97308.03;5036610;28;20692;-72
2023/11/19 10:05:24;;;;;;;1.20;0.60;;;;;;;21.31;51.23;97306.66;5024160;28;20438;-72
2023/11/19 10:07:49;;;;;;;3.17;0.70;;;;;;;21.64;51.73;97320.72;5040774;28;20438;-72
2023/11/19 10:10:18;;;;;;;4.17;0.77;;;;;;;21.65;50.40;97311.69;5024176;28;20462;-72
2023/11/19 10:12:45;;;;;;;1.00;0.80;;;;;;;21.66;50.67;97304.53;5043721;28;20530;-72
2023/11/19 10:15:26;;;;;;;1.23;0.60;;;;;;;21.78;50.22;97311.56;5045160;28;20433;-70
2023/11/19 10:17:58;;;;;;;1.13;0.70;;;;;;;22.02;50.33;97298.34;5031100;28;21000;-72
2023/11/19 10:20:23;;;;;;;1.10;0.90;;;;;;;22.21;49.54;97303.69;5042390;28;20449;-72
2023/11/19 10:22:55;;;;;;;1.43;0.73;;;;;;;22.22;48.83;97310.66;5049923;28;20476;-73
2023/11/19 10:25:27;;;;;;;1.83;0.90;;;;;;;22.66;48.08;97305.16;5038468;28;20205;-72
2023/11/19 10:27:54;;;;;;;3.30;0.93;;;;;;;22.65;47.00;97304.34;5045482;28;20771;-72
2023/11/19 10:30:21;;;;;;;1.00;0.77;;;;;;;22.24;47.27;97309.38;5045757;28;20625;-73
2023/11/19 10:33:02;;;;;;;1.60;0.80;;;;;;;21.89;47.64;97318.03;5009992;28;20433;-72
2023/11/19 10:35:27;;;;;;;2.63;0.70;;;;;;;21.73;48.12;97322.09;5038455;28;20440;-71
2023/11/19 10:37:53;;;;;;;2.23;0.90;;;;;;;21.60;48.63;97314.22;5043061;28;20433;-72
2023/11/19 10:40:18;;;;;;;1.33;0.80;;;;;;;21.73;48.08;97315.94;5044418;28;20213;-72
2023/11/19 10:42:44;;;;;;;1.30;0.80;;;;;;;21.71;48.50;97310.00;5033156;28;20771;-71
2023/11/19 10:45:36;;;;;;;1.97;0.77;;;;;;;22.13;47.07;97302.13;5025738;28;20681;-72
2023/11/19 10:48:06;;;;;;;1.07;0.63;;;;;;;22.42;45.30;97309.59;5051410;28;20207;-72
2023/11/19 10:50:33;;;;;;;3.53;0.97;;;;;;;22.62;44.75;97310.13;5024334;28;20449;-72
2023/11/19 10:52:59;;;;;;;1.63;0.80;;;;;;;22.74;43.12;97304.84;5045273;28;20801;-72
2023/11/19 10:55:30;;;;;;;0.93;0.50;;;;;;;23.08;43.58;97296.31;5042597;28;20452;-72
2023/11/19 10:58:05;;;;;;;2.27;2.07;;;;;;;23.52;43.43;97296.00;5043702;28;20191;-74
2023/11/19 11:00:49;;;;;;;1.17;0.67;;;;;;;24.02;41.66;97303.50;5028120;28;20819;-72
2023/11/19 11:03:19;;;;;;;1.43;0.80;;;;;;;24.16;41.08;97287.19;5022994;28;20508;-73
2023/11/19 11:05:49;;;;;;;1.10;0.60;;;;;;;24.04;40.89;97288.03;5042291;28;20456;-72
2023/11/19 11:08:16;;;;;;;2.30;1.13;;;;;;;23.92;41.14;97287.22;5047112;28;20544;-73
2023/11/19 11:10:45;;;;;;;1.00;0.60;;;;;;;23.80;40.82;97295.25;5030140;28;21015;-71
2023/11/19 11:13:12;;;;;;;1.40;0.63;;;;;;;23.47;41.00;97292.16;5046755;28;21240;-73
2023/11/19 11:15:37;;;;;;;2.60;0.80;;;;;;;22.80;40.68;97301.28;5042479;28;20520;-73
2023/11/19 11:18:03;;;;;;;1.10;0.60;;;;;;;22.42;42.09;97305.09;5047829;28;20437;-72
2023/11/19 11:20:33;;;;;;;2.20;0.93;;;;;;;22.29;42.97;97303.38;5042675;28;20219;-72
2023/11/19 11:23:24;;;;;;;1.90;0.70;;;;;;;22.24;43.00;97301.38;5038979;28;20202;-72
2023/11/19 11:26:19;;;;;;;1.37;0.80;;;;;;;22.31;43.05;97308.47;5042757;28;20441;-71
2023/11/19 11:29:08;;;;;;;2.30;0.90;;;;;;;22.04;42.76;97303.50;5026689;28;20527;-71
2023/11/19 11:31:44;;;;;;;0.90;0.60;;;;;;;21.65;43.18;97301.03;5037823;28;20445;-71